createdAt,value
2018-05-31T00:00:29.545Z,1015.12
2018-05-31T00:01:29.717Z,1015.09
2018-05-31T00:02:28.976Z,1015.11
2018-05-31T00:03:28.935Z,1015.14
2018-05-31T00:04:28.981Z,1015.19
2018-05-31T00:05:29.779Z,1015.2
2018-05-31T00:06:28.952Z,1015.22
2018-05-31T00:07:28.939Z,1015.25
2018-05-31T00:08:29.967Z,1015.25
2018-05-31T00:09:29.081Z,1015.25
2018-05-31T00:10:28.982Z,1015.26
2018-05-31T00:11:29.074Z,1015.26
2018-05-31T00:12:29.023Z,1015.23
2018-05-31T00:13:29.039Z,1015.21
2018-05-31T00:14:30.050Z,1015.19
2018-05-31T00:15:29.015Z,1015.21
2018-05-31T00:16:29.068Z,1015.22
2018-05-31T00:17:29.055Z,1015.16
2018-05-31T00:18:29.029Z,1015.16
2018-05-31T00:19:29.071Z,1015.16
2018-05-31T00:20:29.018Z,1015.16
2018-05-31T00:21:29.010Z,1015.14
2018-05-31T00:22:29.045Z,1015.15
2018-05-31T00:23:29.697Z,1015.1
2018-05-31T00:24:28.989Z,1015.14
2018-05-31T00:25:29.098Z,1015.1
2018-05-31T00:26:29.002Z,1015.13
2018-05-31T00:27:29.055Z,1015.11
2018-05-31T00:28:29.019Z,1015.11
2018-05-31T00:29:29.022Z,1015.07
2018-05-31T00:30:29.063Z,1015.05
2018-05-31T00:31:29.037Z,1015.01
2018-05-31T00:32:29.462Z,1014.97
2018-05-31T00:33:29.143Z,1014.99
2018-05-31T00:34:29.002Z,1014.95
2018-05-31T00:35:29.120Z,1014.91
2018-05-31T00:36:29.007Z,1015
2018-05-31T00:37:29.074Z,1014.94
2018-05-31T00:38:29.038Z,1014.94
2018-05-31T00:39:29.151Z,1014.94
2018-05-31T00:40:29.035Z,1014.94
2018-05-31T00:41:29.545Z,1014.95
2018-05-31T00:42:29.176Z,1014.95
2018-05-31T00:43:29.065Z,1015.01
2018-05-31T00:44:29.084Z,1015.06
2018-05-31T00:45:29.037Z,1015.01
2018-05-31T00:46:29.680Z,1015.05
2018-05-31T00:47:29.208Z,1015.06
2018-05-31T00:48:28.876Z,1015.05
2018-05-31T00:49:29.046Z,1015.09
2018-05-31T00:50:29.079Z,1015.06
2018-05-31T00:51:29.094Z,1015.07
2018-05-31T00:52:29.235Z,1015.08
2018-05-31T00:53:29.146Z,1015.06
2018-05-31T00:54:28.897Z,1015.06
2018-05-31T00:55:29.134Z,1015.1
2018-05-31T00:56:29.085Z,1015.06
2018-05-31T00:57:29.090Z,1015.06
2018-05-31T00:58:28.894Z,1015.07
2018-05-31T00:59:28.909Z,1015.05
2018-05-31T01:00:29.759Z,1015.08
2018-05-31T01:01:28.918Z,1015.08
2018-05-31T01:02:29.236Z,1015.09
2018-05-31T01:03:28.967Z,1015.04
2018-05-31T01:04:28.948Z,1015.15
2018-05-31T01:05:28.910Z,1015.15
2018-05-31T01:06:28.954Z,1015.14
2018-05-31T01:07:29.260Z,1015.17
2018-05-31T01:08:28.916Z,1015.21
2018-05-31T01:09:29.416Z,1015.21
2018-05-31T01:10:28.938Z,1015.25
2018-05-31T01:11:28.945Z,1015.25
2018-05-31T01:12:28.944Z,1015.19
2018-05-31T01:13:29.196Z,1015.19
2018-05-31T01:14:28.929Z,1015.2
2018-05-31T01:15:28.944Z,1015.19
2018-05-31T01:16:28.929Z,1015.23
2018-05-31T01:17:28.975Z,1015.2
2018-05-31T01:18:29.583Z,1015.19
2018-05-31T01:19:28.963Z,1015.24
2018-05-31T01:20:29.080Z,1015.19
2018-05-31T01:21:29.243Z,1015.19
2018-05-31T01:22:28.956Z,1015.19
2018-05-31T01:23:29.060Z,1015.23
2018-05-31T01:24:28.970Z,1015.24
2018-05-31T01:25:28.926Z,1015.26
2018-05-31T01:26:28.990Z,1015.26
2018-05-31T01:27:29.441Z,1015.28
2018-05-31T01:28:28.955Z,1015.26
2018-05-31T01:29:28.915Z,1015.29
2018-05-31T01:30:28.934Z,1015.32
2018-05-31T01:31:28.956Z,1015.35
2018-05-31T01:32:28.923Z,1015.44
2018-05-31T01:33:28.941Z,1015.42
2018-05-31T01:34:28.940Z,1015.43
2018-05-31T01:35:28.949Z,1015.43
2018-05-31T01:36:29.402Z,1015.4
2018-05-31T01:37:28.943Z,1015.41
2018-05-31T01:38:28.926Z,1015.41
2018-05-31T01:39:28.929Z,1015.34
2018-05-31T01:40:28.921Z,1015.33
2018-05-31T01:41:28.961Z,1015.35
2018-05-31T01:42:29.002Z,1015.37
2018-05-31T01:43:28.934Z,1015.38
2018-05-31T01:44:28.931Z,1015.39
2018-05-31T01:45:29.221Z,1015.41
2018-05-31T01:46:28.944Z,1015.4
2018-05-31T01:47:28.961Z,1015.36
2018-05-31T01:48:28.936Z,1015.33
2018-05-31T01:49:28.944Z,1015.35
2018-05-31T01:50:28.950Z,1015.28
2018-05-31T01:51:28.964Z,1015.27
2018-05-31T01:52:28.930Z,1015.26
2018-05-31T01:53:29.055Z,1015.27
2018-05-31T01:54:29.304Z,1015.26
2018-05-31T01:55:29.540Z,1015.21
2018-05-31T01:56:28.962Z,1015.24
2018-05-31T01:57:28.982Z,1015.16
2018-05-31T01:58:28.945Z,1015.15
2018-05-31T01:59:28.963Z,1015.15
2018-05-31T02:00:28.995Z,1015.2
2018-05-31T02:01:28.942Z,1015.18
2018-05-31T02:02:28.972Z,1015.18
2018-05-31T02:03:29.046Z,1015.2
2018-05-31T02:04:29.601Z,1015.21
2018-05-31T02:05:28.955Z,1015.22
2018-05-31T02:06:28.948Z,1015.25
2018-05-31T02:07:28.941Z,1015.19
2018-05-31T02:08:28.978Z,1015.18
2018-05-31T02:09:28.978Z,1015.13
2018-05-31T02:10:28.936Z,1015.12
2018-05-31T02:11:28.946Z,1015.16
2018-05-31T02:12:29.183Z,1015.16
2018-05-31T02:13:29.668Z,1015.2
2018-05-31T02:14:29.106Z,1015.21
2018-05-31T02:15:28.961Z,1015.22
2018-05-31T02:16:28.973Z,1015.26
2018-05-31T02:17:29.002Z,1015.17
2018-05-31T02:18:29.093Z,1015.18
2018-05-31T02:19:28.960Z,1015.12
2018-05-31T02:20:28.981Z,1015.12
2018-05-31T02:21:28.958Z,1015.09
2018-05-31T02:22:29.727Z,1015.13
2018-05-31T02:23:29.043Z,1015.09
2018-05-31T02:24:28.989Z,1015.16
2018-05-31T02:25:28.980Z,1015.19
2018-05-31T02:26:29.100Z,1015.17
2018-05-31T02:27:28.978Z,1015.19
2018-05-31T02:28:28.949Z,1015.2
2018-05-31T02:29:29.013Z,1015.2
2018-05-31T02:30:28.980Z,1015.17
2018-05-31T02:31:29.706Z,1015.19
2018-05-31T02:32:28.957Z,1015.17
2018-05-31T02:33:28.997Z,1015.18
2018-05-31T02:34:29.005Z,1015.16
2018-05-31T02:35:28.965Z,1015.16
2018-05-31T02:36:28.983Z,1015.16
2018-05-31T02:37:28.986Z,1015.19
2018-05-31T02:38:29.007Z,1015.15
2018-05-31T02:39:28.973Z,1015.18
2018-05-31T02:40:29.461Z,1015.14
2018-05-31T02:41:28.960Z,1015.12
2018-05-31T02:42:28.971Z,1015.09
2018-05-31T02:43:29.001Z,1015.06
2018-05-31T02:44:28.980Z,1015.03
2018-05-31T02:45:29.009Z,1015.01
2018-05-31T02:46:28.990Z,1015.04
2018-05-31T02:47:28.995Z,1015.04
2018-05-31T02:48:29.047Z,1015.05
2018-05-31T02:49:29.515Z,1015.07
2018-05-31T02:50:29.022Z,1015.04
2018-05-31T02:51:29.122Z,1015.1
2018-05-31T02:52:29.097Z,1015.12
2018-05-31T02:53:29.066Z,1015.12
2018-05-31T02:54:29.095Z,1015.19
2018-05-31T02:55:29.070Z,1015.19
2018-05-31T02:56:29.055Z,1015.14
2018-05-31T02:57:29.105Z,1015.19
2018-05-31T02:58:29.603Z,1015.19
2018-05-31T02:59:29.137Z,1015.17
2018-05-31T03:00:29.131Z,1015.17
2018-05-31T03:01:29.143Z,1015.12
2018-05-31T03:02:29.135Z,1015.1
2018-05-31T03:03:29.168Z,1015.08
2018-05-31T03:04:29.126Z,1015.09
2018-05-31T03:05:29.116Z,1015.12
2018-05-31T03:06:29.129Z,1015.14
2018-05-31T03:07:29.744Z,1015.18
2018-05-31T03:08:29.199Z,1015.17
2018-05-31T03:09:29.492Z,1015.19
2018-05-31T03:10:29.121Z,1015.23
2018-05-31T03:11:29.148Z,1015.3
2018-05-31T03:12:29.136Z,1015.25
2018-05-31T03:13:29.145Z,1015.25
2018-05-31T03:14:29.143Z,1015.27
2018-05-31T03:15:29.237Z,1015.22
2018-05-31T03:16:29.602Z,1015.26
2018-05-31T03:17:29.130Z,1015.25
2018-05-31T03:18:29.157Z,1015.31
2018-05-31T03:19:29.168Z,1015.33
2018-05-31T03:20:29.163Z,1015.36
2018-05-31T03:21:29.161Z,1015.37
2018-05-31T03:22:29.498Z,1015.33
2018-05-31T03:23:29.201Z,1015.38
2018-05-31T03:24:29.178Z,1015.37
2018-05-31T03:25:29.761Z,1015.38
2018-05-31T03:26:29.128Z,1015.42
2018-05-31T03:27:29.235Z,1015.42
2018-05-31T03:28:29.148Z,1015.44
2018-05-31T03:29:29.151Z,1015.41
2018-05-31T03:30:29.153Z,1015.44
2018-05-31T03:31:29.171Z,1015.47
2018-05-31T03:32:29.145Z,1015.48
2018-05-31T03:33:29.173Z,1015.49
2018-05-31T03:34:29.252Z,1015.51
2018-05-31T03:35:29.172Z,1015.47
2018-05-31T03:36:29.186Z,1015.51
2018-05-31T03:37:29.143Z,1015.45
2018-05-31T03:38:29.182Z,1015.45
2018-05-31T03:39:29.192Z,1015.43
2018-05-31T03:40:29.207Z,1015.43
2018-05-31T03:41:29.170Z,1015.45
2018-05-31T03:42:29.225Z,1015.44
2018-05-31T03:43:29.621Z,1015.41
2018-05-31T03:44:29.189Z,1015.38
2018-05-31T03:45:29.204Z,1015.33
2018-05-31T03:46:29.000Z,1015.35
2018-05-31T03:47:29.249Z,1015.37
2018-05-31T03:48:29.014Z,1015.4
2018-05-31T03:49:29.016Z,1015.43
2018-05-31T03:50:29.068Z,1015.47
2018-05-31T03:51:29.043Z,1015.53
2018-05-31T03:52:29.453Z,1015.58
2018-05-31T03:53:29.725Z,1015.55
2018-05-31T03:54:29.068Z,1015.53
2018-05-31T03:55:29.057Z,1015.52
2018-05-31T03:56:29.066Z,1015.51
2018-05-31T03:57:29.085Z,1015.51
2018-05-31T03:58:29.043Z,1015.5
2018-05-31T03:59:29.105Z,1015.44
2018-05-31T04:00:29.137Z,1015.45
2018-05-31T04:01:29.747Z,1015.4
2018-05-31T04:02:29.049Z,1015.32
2018-05-31T04:03:29.065Z,1015.34
2018-05-31T04:04:29.033Z,1015.35
2018-05-31T04:05:29.049Z,1015.36
2018-05-31T04:06:29.049Z,1015.37
2018-05-31T04:07:29.056Z,1015.39
2018-05-31T04:08:29.064Z,1015.37
2018-05-31T04:09:29.050Z,1015.39
2018-05-31T04:10:29.979Z,1015.42
2018-05-31T04:11:29.051Z,1015.4
2018-05-31T04:12:29.037Z,1015.38
2018-05-31T04:13:29.058Z,1015.38
2018-05-31T04:14:29.066Z,1015.35
2018-05-31T04:15:29.052Z,1015.3
2018-05-31T04:16:29.057Z,1015.3
2018-05-31T04:17:29.052Z,1015.29
2018-05-31T04:18:29.125Z,1015.24
2018-05-31T04:19:29.442Z,1015.22
2018-05-31T04:20:29.165Z,1015.2
2018-05-31T04:21:29.458Z,1015.21
2018-05-31T04:22:29.028Z,1015.18
2018-05-31T04:23:29.046Z,1015.21
2018-05-31T04:24:29.018Z,1015.21
2018-05-31T04:25:29.134Z,1015.23
2018-05-31T04:26:29.112Z,1015.24
2018-05-31T04:27:29.074Z,1015.23
2018-05-31T04:28:29.689Z,1015.24
2018-05-31T04:29:29.119Z,1015.23
2018-05-31T04:30:29.187Z,1015.23
2018-05-31T04:31:29.066Z,1015.27
2018-05-31T04:32:29.089Z,1015.27
2018-05-31T04:33:29.075Z,1015.25
2018-05-31T04:34:29.180Z,1015.23
2018-05-31T04:35:29.096Z,1015.21
2018-05-31T04:36:29.145Z,1015.25
2018-05-31T04:37:29.626Z,1015.22
2018-05-31T04:38:29.050Z,1015.2
2018-05-31T04:39:29.059Z,1015.26
2018-05-31T04:40:29.083Z,1015.31
2018-05-31T04:41:29.072Z,1015.31
2018-05-31T04:42:29.195Z,1015.4
2018-05-31T04:43:29.083Z,1015.34
2018-05-31T04:44:29.099Z,1015.34
2018-05-31T04:45:29.038Z,1015.35
2018-05-31T04:46:29.617Z,1015.31
2018-05-31T04:47:29.100Z,1015.34
2018-05-31T04:48:29.078Z,1015.31
2018-05-31T04:49:29.090Z,1015.33
2018-05-31T04:50:29.084Z,1015.33
2018-05-31T04:51:29.045Z,1015.31
2018-05-31T04:52:29.100Z,1015.33
2018-05-31T04:53:29.100Z,1015.32
2018-05-31T04:54:29.078Z,1015.31
2018-05-31T04:55:29.670Z,1015.3
2018-05-31T04:56:29.113Z,1015.31
2018-05-31T04:57:29.077Z,1015.29
2018-05-31T04:58:29.058Z,1015.28
2018-05-31T04:59:29.119Z,1015.33
2018-05-31T05:00:29.228Z,1015.33
2018-05-31T05:01:29.074Z,1015.35
2018-05-31T05:02:29.152Z,1015.37
2018-05-31T05:03:29.120Z,1015.44
2018-05-31T05:04:29.703Z,1015.44
2018-05-31T05:05:29.099Z,1015.43
2018-05-31T05:06:29.137Z,1015.47
2018-05-31T05:07:29.077Z,1015.47
2018-05-31T05:08:29.066Z,1015.49
2018-05-31T05:09:29.069Z,1015.49
2018-05-31T05:10:29.078Z,1015.57
2018-05-31T05:11:29.065Z,1015.6
2018-05-31T05:12:29.098Z,1015.59
2018-05-31T05:13:29.590Z,1015.56
2018-05-31T05:14:29.067Z,1015.61
2018-05-31T05:15:29.064Z,1015.59
2018-05-31T05:16:29.064Z,1015.63
2018-05-31T05:17:29.098Z,1015.67
2018-05-31T05:18:29.063Z,1015.66
2018-05-31T05:19:29.077Z,1015.66
2018-05-31T05:20:29.131Z,1015.61
2018-05-31T05:21:29.120Z,1015.6
2018-05-31T05:22:29.457Z,1015.6
2018-05-31T05:23:29.146Z,1015.59
2018-05-31T05:24:29.105Z,1015.59
2018-05-31T05:25:29.101Z,1015.57
2018-05-31T05:26:29.245Z,1015.57
2018-05-31T05:27:29.112Z,1015.61
2018-05-31T05:28:29.105Z,1015.62
2018-05-31T05:29:29.098Z,1015.65
2018-05-31T05:30:29.081Z,1015.61
2018-05-31T05:31:29.895Z,1015.65
2018-05-31T05:32:29.192Z,1015.63
2018-05-31T05:33:29.124Z,1015.58
2018-05-31T05:34:29.171Z,1015.61
2018-05-31T05:35:29.101Z,1015.63
2018-05-31T05:36:29.231Z,1015.64
2018-05-31T05:37:29.132Z,1015.66
2018-05-31T05:38:29.205Z,1015.67
2018-05-31T05:39:29.162Z,1015.69
2018-05-31T05:40:29.645Z,1015.66
2018-05-31T05:41:29.201Z,1015.7
2018-05-31T05:42:29.195Z,1015.69
2018-05-31T05:43:29.240Z,1015.69
2018-05-31T05:44:29.181Z,1015.73
2018-05-31T05:45:29.224Z,1015.75
2018-05-31T05:46:29.180Z,1015.78
2018-05-31T05:47:29.213Z,1015.75
2018-05-31T05:48:29.222Z,1015.75
2018-05-31T05:49:29.843Z,1015.73
2018-05-31T05:50:29.365Z,1015.77
2018-05-31T05:51:29.240Z,1015.74
2018-05-31T05:52:29.306Z,1015.75
2018-05-31T05:53:29.208Z,1015.72
2018-05-31T05:54:29.232Z,1015.75
2018-05-31T05:55:29.227Z,1015.76
2018-05-31T05:56:29.445Z,1015.78
2018-05-31T05:57:29.260Z,1015.78
2018-05-31T05:58:29.799Z,1015.77
2018-05-31T05:59:29.254Z,1015.79
2018-05-31T06:00:29.280Z,1015.77
2018-05-31T06:01:29.297Z,1015.77
2018-05-31T06:02:29.267Z,1015.82
2018-05-31T06:03:29.259Z,1015.82
2018-05-31T06:04:29.248Z,1015.87
2018-05-31T06:05:29.426Z,1015.92
2018-05-31T06:06:29.281Z,1015.88
2018-05-31T06:07:29.265Z,1015.91
2018-05-31T06:08:29.261Z,1015.93
2018-05-31T06:09:29.286Z,1015.92
2018-05-31T06:10:29.227Z,1015.9
2018-05-31T06:11:29.281Z,1015.9
2018-05-31T06:12:29.289Z,1015.92
2018-05-31T06:13:29.978Z,1015.88
2018-05-31T06:14:29.271Z,1015.9
2018-05-31T06:15:29.817Z,1015.89
2018-05-31T06:16:29.308Z,1015.91
2018-05-31T06:17:29.305Z,1015.88
2018-05-31T06:18:29.248Z,1015.93
2018-05-31T06:19:29.272Z,1015.9
2018-05-31T06:20:29.250Z,1015.86
2018-05-31T06:21:29.257Z,1015.85
2018-05-31T06:22:29.261Z,1015.85
2018-05-31T06:23:29.266Z,1015.85
2018-05-31T06:24:29.812Z,1015.85
2018-05-31T06:25:29.246Z,1015.84
2018-05-31T06:26:29.654Z,1015.84
2018-05-31T06:27:29.247Z,1015.86
2018-05-31T06:28:29.267Z,1015.86
2018-05-31T06:29:29.335Z,1015.89
2018-05-31T06:30:29.314Z,1015.93
2018-05-31T06:31:29.276Z,1015.96
2018-05-31T06:32:29.335Z,1015.98
2018-05-31T06:33:29.782Z,1016.03
2018-05-31T06:34:29.113Z,1016.06
2018-05-31T06:35:29.119Z,1016.08
2018-05-31T06:36:29.134Z,1016.1
2018-05-31T06:37:29.383Z,1016.12
2018-05-31T06:38:29.633Z,1016.05
2018-05-31T06:39:29.114Z,1016.06
2018-05-31T06:40:29.173Z,1016.05
2018-05-31T06:41:29.118Z,1016.05
2018-05-31T06:42:29.464Z,1016.06
2018-05-31T06:43:29.139Z,1016.04
2018-05-31T06:44:29.138Z,1016.04
2018-05-31T06:45:29.117Z,1016.05
2018-05-31T06:46:29.125Z,1016.02
2018-05-31T06:47:29.154Z,1016.02
2018-05-31T06:48:29.116Z,1016.07
2018-05-31T06:49:29.104Z,1016.08
2018-05-31T06:50:29.122Z,1016.13
2018-05-31T06:51:29.246Z,1016.12
2018-05-31T06:52:29.186Z,1016.15
2018-05-31T06:53:29.112Z,1016.2
2018-05-31T06:54:29.209Z,1016.19
2018-05-31T06:55:29.116Z,1016.17
2018-05-31T06:56:29.134Z,1016.2
2018-05-31T06:57:29.142Z,1016.2
2018-05-31T06:58:29.136Z,1016.17
2018-05-31T06:59:29.163Z,1016.15
2018-05-31T07:00:29.158Z,1016.18
2018-05-31T07:01:29.147Z,1016.15
2018-05-31T07:02:29.240Z,1016.14
2018-05-31T07:03:29.319Z,1016.16
2018-05-31T07:04:29.141Z,1016.17
2018-05-31T07:05:29.121Z,1016.2
2018-05-31T07:06:29.137Z,1016.18
2018-05-31T07:07:29.149Z,1016.19
2018-05-31T07:08:29.152Z,1016.18
2018-05-31T07:09:29.150Z,1016.17
2018-05-31T07:10:29.159Z,1016.19
2018-05-31T07:11:29.153Z,1016.18
2018-05-31T07:12:29.170Z,1016.17
2018-05-31T07:13:29.293Z,1016.21
2018-05-31T07:14:29.337Z,1016.15
2018-05-31T07:15:29.305Z,1016.2
2018-05-31T07:16:29.150Z,1016.19
2018-05-31T07:17:29.197Z,1016.18
2018-05-31T07:18:29.202Z,1016.21
2018-05-31T07:19:29.140Z,1016.17
2018-05-31T07:20:29.138Z,1016.15
2018-05-31T07:21:29.140Z,1016.09
2018-05-31T07:22:29.138Z,1016.14
2018-05-31T07:23:29.145Z,1016.09
2018-05-31T07:24:29.130Z,1016.09
2018-05-31T07:25:29.178Z,1016.09
2018-05-31T07:26:29.148Z,1016.08
2018-05-31T07:27:29.147Z,1016.11
2018-05-31T07:28:29.188Z,1016.12
2018-05-31T07:29:29.149Z,1016.16
2018-05-31T07:30:29.202Z,1016.16
2018-05-31T07:31:29.176Z,1016.14
2018-05-31T07:32:29.167Z,1016.12
2018-05-31T07:33:29.176Z,1016.15
2018-05-31T07:34:29.175Z,1016.15
2018-05-31T07:35:29.138Z,1016.13
2018-05-31T07:36:29.167Z,1016.15
2018-05-31T07:37:29.279Z,1016.1
2018-05-31T07:38:29.153Z,1016.15
2018-05-31T07:39:29.164Z,1016.12
2018-05-31T07:40:29.136Z,1016.12
2018-05-31T07:41:29.139Z,1016.11
2018-05-31T07:42:29.183Z,1016.12
2018-05-31T07:43:29.394Z,1016.11
2018-05-31T07:44:29.157Z,1016.19
2018-05-31T07:45:29.176Z,1016.2
2018-05-31T07:46:29.894Z,1016.17
2018-05-31T07:47:29.166Z,1016.15
2018-05-31T07:48:29.189Z,1016.18
2018-05-31T07:49:29.221Z,1016.17
2018-05-31T07:50:29.340Z,1016.13
2018-05-31T07:51:29.227Z,1016.16
2018-05-31T07:52:29.176Z,1016.18
2018-05-31T07:53:29.158Z,1016.18
2018-05-31T07:54:29.163Z,1016.16
2018-05-31T07:55:29.373Z,1016.17
2018-05-31T07:56:29.204Z,1016.2
2018-05-31T07:57:29.189Z,1016.21
2018-05-31T07:58:29.239Z,1016.19
2018-05-31T07:59:29.174Z,1016.19
2018-05-31T08:00:29.175Z,1016.23
2018-05-31T08:01:29.219Z,1016.2
2018-05-31T08:02:29.181Z,1016.14
2018-05-31T08:03:29.238Z,1016.19
2018-05-31T08:04:29.200Z,1016.2
2018-05-31T08:05:29.169Z,1016.25
2018-05-31T08:06:29.194Z,1016.26
2018-05-31T08:07:29.205Z,1016.26
2018-05-31T08:08:29.229Z,1016.26
2018-05-31T08:09:29.191Z,1016.3
2018-05-31T08:10:29.218Z,1016.3
2018-05-31T08:11:29.177Z,1016.27
2018-05-31T08:12:29.220Z,1016.25
2018-05-31T08:13:29.192Z,1016.24
2018-05-31T08:14:29.212Z,1016.29
2018-05-31T08:15:29.166Z,1016.25
2018-05-31T08:16:29.202Z,1016.24
2018-05-31T08:17:29.226Z,1016.28
2018-05-31T08:18:29.189Z,1016.28
2018-05-31T08:19:29.198Z,1016.27
2018-05-31T08:20:29.179Z,1016.3
2018-05-31T08:21:29.183Z,1016.31
2018-05-31T08:22:29.226Z,1016.31
2018-05-31T08:23:29.196Z,1016.27
2018-05-31T08:24:29.180Z,1016.31
2018-05-31T08:25:29.225Z,1016.3
2018-05-31T08:26:29.288Z,1016.32
2018-05-31T08:27:29.186Z,1016.31
2018-05-31T08:28:29.189Z,1016.27
2018-05-31T08:29:29.191Z,1016.32
2018-05-31T08:30:29.205Z,1016.3
2018-05-31T08:31:29.422Z,1016.34
2018-05-31T08:32:29.209Z,1016.32
2018-05-31T08:33:29.230Z,1016.38
2018-05-31T08:34:29.302Z,1016.32
2018-05-31T08:35:29.243Z,1016.35
2018-05-31T08:36:29.250Z,1016.36
2018-05-31T08:37:29.288Z,1016.34
2018-05-31T08:38:29.421Z,1016.31
2018-05-31T08:39:29.323Z,1016.32
2018-05-31T08:40:29.349Z,1016.31
2018-05-31T08:41:29.454Z,1016.29
2018-05-31T08:42:29.327Z,1016.33
2018-05-31T08:43:29.293Z,1016.29
2018-05-31T08:44:29.326Z,1016.3
2018-05-31T08:45:29.344Z,1016.33
2018-05-31T08:46:29.297Z,1016.33
2018-05-31T08:47:29.311Z,1016.26
2018-05-31T08:48:29.323Z,1016.29
2018-05-31T08:49:29.347Z,1016.31
2018-05-31T08:50:29.339Z,1016.3
2018-05-31T08:51:29.342Z,1016.34
2018-05-31T08:52:29.345Z,1016.31
2018-05-31T08:53:29.356Z,1016.36
2018-05-31T08:54:29.371Z,1016.35
2018-05-31T08:55:29.425Z,1016.33
2018-05-31T08:56:29.311Z,1016.36
2018-05-31T08:57:29.318Z,1016.35
2018-05-31T08:58:30.631Z,1016.38
2018-05-31T08:59:29.357Z,1016.43
2018-05-31T09:00:29.360Z,1016.42
2018-05-31T09:01:29.449Z,1016.37
2018-05-31T09:02:29.419Z,1016.38
2018-05-31T09:03:29.380Z,1016.39
2018-05-31T09:04:29.372Z,1016.38
2018-05-31T09:05:29.334Z,1016.44
2018-05-31T09:06:29.456Z,1016.37
2018-05-31T09:07:29.339Z,1016.37
2018-05-31T09:08:29.357Z,1016.36
2018-05-31T09:09:29.552Z,1016.43
2018-05-31T09:10:29.355Z,1016.39
2018-05-31T09:11:29.461Z,1016.41
2018-05-31T09:12:29.454Z,1016.41
2018-05-31T09:13:29.368Z,1016.39
2018-05-31T09:14:29.353Z,1016.38
2018-05-31T09:15:29.425Z,1016.39
2018-05-31T09:16:30.677Z,1016.39
2018-05-31T09:17:29.437Z,1016.36
2018-05-31T09:18:29.481Z,1016.35
2018-05-31T09:19:29.346Z,1016.37
2018-05-31T09:20:29.416Z,1016.33
2018-05-31T09:21:29.409Z,1016.37
2018-05-31T09:22:29.371Z,1016.29
2018-05-31T09:23:29.469Z,1016.31
2018-05-31T09:24:29.370Z,1016.3
2018-05-31T09:25:29.936Z,1016.29
2018-05-31T09:26:29.381Z,1016.26
2018-05-31T09:27:29.428Z,1016.26
2018-05-31T09:28:29.444Z,1016.26
2018-05-31T09:29:29.236Z,1016.2
2018-05-31T09:30:29.242Z,1016.23
2018-05-31T09:31:29.211Z,1016.23
2018-05-31T09:32:29.225Z,1016.18
2018-05-31T09:33:29.227Z,1016.25
2018-05-31T09:34:29.407Z,1016.24
2018-05-31T09:35:29.224Z,1016.16
2018-05-31T09:36:29.251Z,1016.18
2018-05-31T09:37:29.630Z,1016.19
2018-05-31T09:38:29.649Z,1016.21
2018-05-31T09:39:29.664Z,1016.17
2018-05-31T09:40:29.238Z,1016.16
2018-05-31T09:41:29.227Z,1016.15
2018-05-31T09:42:29.228Z,1016.17
2018-05-31T09:43:29.266Z,1016.16
2018-05-31T09:44:29.266Z,1016.17
2018-05-31T09:45:29.261Z,1016.13
2018-05-31T09:46:30.798Z,1016.14
2018-05-31T09:47:29.258Z,1016.16
2018-05-31T09:48:29.228Z,1016.15
2018-05-31T09:49:29.255Z,1016.15
2018-05-31T09:50:30.115Z,1016.16
2018-05-31T09:51:29.336Z,1016.13
2018-05-31T09:52:29.245Z,1016.12
2018-05-31T09:53:29.265Z,1016.07
2018-05-31T09:54:29.294Z,1016.05
2018-05-31T09:55:29.294Z,1016.09
2018-05-31T09:56:29.605Z,1016.08
2018-05-31T09:57:29.288Z,1016.06
2018-05-31T09:58:29.391Z,1016.05
2018-05-31T09:59:29.317Z,1016.03
2018-05-31T10:00:29.276Z,1016
2018-05-31T10:01:29.293Z,1016.04
2018-05-31T10:02:29.266Z,1016.04
2018-05-31T10:03:29.264Z,1016.03
2018-05-31T10:04:29.269Z,1016.07
2018-05-31T10:05:29.286Z,1016.05
2018-05-31T10:06:29.262Z,1016.07
2018-05-31T10:07:29.247Z,1016.06
2018-05-31T10:08:29.410Z,1016.09
2018-05-31T10:09:29.276Z,1016.07
2018-05-31T10:10:29.294Z,1016.08
2018-05-31T10:11:29.287Z,1016.05
2018-05-31T10:12:29.299Z,1016.07
2018-05-31T10:13:29.308Z,1016.04
2018-05-31T10:14:29.277Z,1016.08
2018-05-31T10:15:29.286Z,1016.11
2018-05-31T10:16:29.284Z,1016.08
2018-05-31T10:17:29.249Z,1016.06
2018-05-31T10:18:29.239Z,1016.1
2018-05-31T10:19:29.326Z,1016.08
2018-05-31T10:20:29.297Z,1016.09
2018-05-31T10:21:29.404Z,1016.04
2018-05-31T10:22:29.917Z,1016.04
2018-05-31T10:23:29.406Z,1016.02
2018-05-31T10:24:30.129Z,1015.96
2018-05-31T10:25:29.253Z,1016
2018-05-31T10:26:29.298Z,1016.01
2018-05-31T10:27:29.304Z,1016.04
2018-05-31T10:28:29.581Z,1015.97
2018-05-31T10:29:29.360Z,1016.01
2018-05-31T10:30:29.336Z,1015.94
2018-05-31T10:31:29.345Z,1015.95
2018-05-31T10:32:29.566Z,1015.96
2018-05-31T10:33:29.364Z,1016
2018-05-31T10:34:29.395Z,1016
2018-05-31T10:35:29.350Z,1016.01
2018-05-31T10:36:29.381Z,1015.95
2018-05-31T10:37:29.412Z,1015.89
2018-05-31T10:38:29.576Z,1015.9
2018-05-31T10:39:30.009Z,1015.89
2018-05-31T10:40:29.386Z,1015.86
2018-05-31T10:41:29.321Z,1015.95
2018-05-31T10:42:29.445Z,1015.92
2018-05-31T10:43:29.433Z,1015.88
2018-05-31T10:44:29.431Z,1015.9
2018-05-31T10:45:29.342Z,1015.86
2018-05-31T10:46:29.497Z,1015.94
2018-05-31T10:47:29.955Z,1015.89
2018-05-31T10:48:29.448Z,1015.89
2018-05-31T10:49:29.411Z,1015.86
2018-05-31T10:50:29.440Z,1015.86
2018-05-31T10:51:29.442Z,1015.87
2018-05-31T10:52:29.427Z,1015.86
2018-05-31T10:53:29.486Z,1015.83
2018-05-31T10:54:29.454Z,1015.86
2018-05-31T10:55:29.434Z,1015.84
2018-05-31T10:56:29.337Z,1015.84
2018-05-31T10:57:29.448Z,1015.83
2018-05-31T10:58:29.363Z,1015.84
2018-05-31T10:59:29.401Z,1015.77
2018-05-31T11:00:29.419Z,1015.76
2018-05-31T11:01:29.396Z,1015.76
2018-05-31T11:02:29.505Z,1015.78
2018-05-31T11:03:29.279Z,1015.75
2018-05-31T11:04:29.369Z,1015.67
2018-05-31T11:05:29.387Z,1015.73
2018-05-31T11:06:29.358Z,1015.69
2018-05-31T11:07:29.527Z,1015.68
2018-05-31T11:08:29.319Z,1015.7
2018-05-31T11:09:29.318Z,1015.69
2018-05-31T11:10:29.448Z,1015.68
2018-05-31T11:11:29.344Z,1015.65
2018-05-31T11:12:29.327Z,1015.68
2018-05-31T11:13:30.184Z,1015.67
2018-05-31T11:14:29.318Z,1015.69
2018-05-31T11:15:29.324Z,1015.7
2018-05-31T11:16:29.330Z,1015.7
2018-05-31T11:17:29.301Z,1015.65
2018-05-31T11:18:29.370Z,1015.64
2018-05-31T11:19:29.537Z,1015.64
2018-05-31T11:20:29.294Z,1015.68
2018-05-31T11:21:29.319Z,1015.66
2018-05-31T11:22:29.378Z,1015.66
2018-05-31T11:23:29.311Z,1015.61
2018-05-31T11:24:29.319Z,1015.58
2018-05-31T11:25:29.358Z,1015.57
2018-05-31T11:26:29.837Z,1015.59
2018-05-31T11:27:29.351Z,1015.59
2018-05-31T11:28:30.122Z,1015.59
2018-05-31T11:29:29.320Z,1015.6
2018-05-31T11:30:29.316Z,1015.63
2018-05-31T11:31:29.393Z,1015.64
2018-05-31T11:32:29.306Z,1015.6
2018-05-31T11:33:29.337Z,1015.6
2018-05-31T11:34:29.506Z,1015.57
2018-05-31T11:35:29.368Z,1015.55
2018-05-31T11:36:30.950Z,1015.54
2018-05-31T11:37:29.364Z,1015.57
2018-05-31T11:38:29.450Z,1015.59
2018-05-31T11:39:29.327Z,1015.6
2018-05-31T11:40:29.345Z,1015.59
2018-05-31T11:41:29.459Z,1015.56
2018-05-31T11:42:29.473Z,1015.57
2018-05-31T11:43:29.359Z,1015.55
2018-05-31T11:44:29.370Z,1015.51
2018-05-31T11:45:29.368Z,1015.51
2018-05-31T11:46:29.486Z,1015.56
2018-05-31T11:47:29.383Z,1015.49
2018-05-31T11:48:29.415Z,1015.49
2018-05-31T11:49:29.411Z,1015.56
2018-05-31T11:50:29.403Z,1015.5
2018-05-31T11:51:29.431Z,1015.49
2018-05-31T11:52:29.414Z,1015.46
2018-05-31T11:53:29.594Z,1015.46
2018-05-31T11:54:29.426Z,1015.44
2018-05-31T11:55:29.544Z,1015.42
2018-05-31T11:56:29.596Z,1015.39
2018-05-31T11:57:29.461Z,1015.39
2018-05-31T11:58:29.509Z,1015.38
2018-05-31T11:59:29.458Z,1015.36
2018-05-31T12:00:29.561Z,1015.4
2018-05-31T12:01:29.494Z,1015.34
2018-05-31T12:02:29.469Z,1015.35
2018-05-31T12:03:29.505Z,1015.35
2018-05-31T12:04:29.505Z,1015.36
2018-05-31T12:05:29.483Z,1015.37
2018-05-31T12:06:29.595Z,1015.36
2018-05-31T12:07:29.532Z,1015.32
2018-05-31T12:08:29.525Z,1015.3